ADDS METAR Data INFO
IDs: Format: Raw Decoded Include TAF

Data at: 0855 UTC 19 Jun 2018

KIMS 190835Z AUTO 22003KT 10SM CLR 23/21 A3003 RMK AO1
KIMS 190815Z AUTO 00000KT 10SM CLR 24/22 A3003 RMK AO1
KIMS 190755Z AUTO 23003KT 10SM CLR 24/22 A3003 RMK AO1
KIMS 190735Z AUTO 00000KT 10SM CLR 24/22 A3004 RMK AO1
KIMS 190715Z AUTO 22003KT 10SM CLR 25/22 A3004 RMK AO1
KIMS 190655Z AUTO 24003KT 10SM CLR 25/22 A3004 RMK AO1
KIMS 190635Z AUTO 24003KT 10SM CLR 25/22 A3005 RMK AO1
KIMS 190615Z AUTO 23004KT 10SM CLR 25/22 A3005 RMK AO1
KIMS 190555Z AUTO 23003KT 10SM CLR 25/22 A3005 RMK AO1
KIMS 190535Z AUTO 23005KT 10SM CLR 26/22 A3006 RMK AO1
KIMS 190515Z AUTO 23005KT 10SM CLR 26/22 A3006 RMK AO1
KIMS 190455Z AUTO 23004KT 10SM CLR 26/22 A3006 RMK AO1
KIMS 190435Z AUTO 23004KT 10SM CLR 26/22 A3006 RMK AO1
KIMS 190415Z AUTO 23003KT 10SM CLR 26/22 A3006 RMK AO1
KIMS 190355Z AUTO 23003KT 10SM CLR 26/22 A3006 RMK AO1
KIMS 190335Z AUTO 23003KT 10SM CLR 26/22 A3006 RMK AO1
KIMS 190315Z AUTO 00000KT 10SM CLR 26/22 A3006 RMK AO1
KIMS 190255Z AUTO 00000KT 10SM CLR 27/22 A3006 RMK AO1
KIMS 190235Z AUTO 00000KT 10SM CLR 27/22 A3005 RMK AO1
KIMS 190215Z AUTO 22003KT 10SM CLR 27/22 A3005 RMK AO1
KIMS 190155Z AUTO 25003KT 10SM CLR 27/22 A3004 RMK AO1
KIMS 190135Z AUTO 24003KT 10SM CLR 28/21 A3004 RMK AO1
KIMS 190115Z AUTO 24003KT 10SM CLR 28/21 A3003 RMK AO1
KIMS 190055Z AUTO 23003KT 10SM CLR 29/21 A3003 RMK AO1
KIMS 190035Z AUTO 26003KT 10SM CLR 30/21 A3003 RMK AO1
KIMS 190015Z AUTO 23006KT 10SM CLR 31/21 A3002 RMK AO1
KIMS 182355Z AUTO 24006KT 10SM CLR 31/20 A3002 RMK AO1
KIMS 182335Z AUTO 23008KT 10SM CLR 32/20 A3002 RMK AO1
KIMS 182315Z AUTO 24006KT 10SM CLR 32/20 A3002 RMK AO1
KIMS 182255Z AUTO 26006KT 10SM CLR 33/20 A3002 RMK AO1
KIMS 182235Z AUTO 27006KT 10SM SCT047 SCT060 32/20 A3003 RMK AO1
KIMS 182215Z AUTO 26005KT 10SM SCT047 32/20 A3003 RMK AO1
KIMS 182155Z AUTO 25007KT 10SM CLR 33/19 A3004 RMK AO1
KIMS 182135Z AUTO 25008KT 10SM CLR 33/19 A3005 RMK AO1
KIMS 182115Z AUTO 25007KT 10SM SCT050 33/18 A3005 RMK AO1
KIMS 182055Z AUTO 23006KT 10SM CLR 34/18 A3005 RMK AO1
KIMS 182035Z AUTO 22005KT 10SM CLR 33/18 A3006 RMK AO1
KIMS 182015Z AUTO 26006KT 10SM SCT049 34/18 A3007 RMK AO1
KIMS 181955Z AUTO 24007KT 10SM CLR 34/18 A3007 RMK AO1
KIMS 181935Z AUTO 25006KT 10SM SCT045 SCT060 34/19 A3008 RMK AO1
KIMS 181915Z AUTO 22006KT 10SM CLR 33/19 A3009 RMK AO1
KIMS 181855Z AUTO 26008KT 10SM CLR 33/20 A3009 RMK AO1
KIMS 181835Z AUTO 28006KT 10SM CLR 33/19 A3010 RMK AO1
KIMS 181815Z AUTO 23006KT 10SM SCT041 SCT065 33/20 A3011 RMK AO1
KIMS 181755Z AUTO 27006KT 10SM SCT039 SCT046 SCT065 32/20 A3012 RMK AO1
KIMS 181735Z AUTO 23007KT 10SM SCT039 33/20 A3012 RMK AO1
KIMS 181715Z AUTO 29006KT 10SM SCT039 SCT050 SCT060 32/20 A3013 RMK AO1
KIMS 181655Z AUTO 26006KT 10SM SCT041 SCT060 32/20 A3013 RMK AO1
KIMS 181635Z AUTO 26008KT 10SM CLR 32/21 A3013 RMK AO1
KIMS 181615Z AUTO 27007KT 10SM CLR 32/21 A3013 RMK AO1
KIMS 181555Z AUTO 22007KT 10SM CLR 31/21 A3013 RMK AO1
KIMS 181535Z AUTO 24005KT 10SM CLR 31/21 A3014 RMK AO1
KIMS 181515Z AUTO 27005KT 10SM CLR 31/21 A3014 RMK AO1
KIMS 181455Z AUTO 24005KT 10SM CLR 31/21 A3014 RMK AO1
KIMS 181435Z AUTO 24004KT 10SM CLR 30/21 A3014 RMK AO1
KIMS 181415Z AUTO 25006KT 10SM CLR 30/21 A3014 RMK AO1
KIMS 181355Z AUTO 23005KT 10SM CLR 29/22 A3014 RMK AO1
KIMS 181335Z AUTO 23005KT 10SM CLR 28/22 A3014 RMK AO1
KIMS 181315Z AUTO 24005KT 10SM CLR 28/22 A3014 RMK AO1
KIMS 181255Z AUTO 24007KT 10SM CLR 27/22 A3014 RMK AO1
KIMS 181235Z AUTO 23005KT 10SM CLR 27/22 A3013 RMK AO1
KIMS 181215Z AUTO 21005KT 7SM CLR 26/23 A3013 RMK AO1
KIMS 181155Z AUTO 00000KT 7SM CLR 25/23 A3012 RMK AO1
KIMS 181135Z AUTO 00000KT 7SM CLR 24/23 A3012 RMK AO1
KIMS 181115Z AUTO 00000KT 4SM CLR 23/22 A3012 RMK AO1
KIMS 181055Z AUTO 00000KT 3SM CLR 22/21 A3012 RMK AO1
KIMS 181035Z AUTO 00000KT 4SM CLR 22/21 A3011 RMK AO1
KIMS 181015Z AUTO 00000KT 5SM CLR 22/21 A3011 RMK AO1
KIMS 180955Z AUTO 00000KT 4SM CLR 22/21 A3010 RMK AO1
KIMS 180935Z AUTO 00000KT 4SM CLR 22/21 A3010 RMK AO1
KIMS 180915Z AUTO 00000KT 4SM CLR 22/21 A3010 RMK AO1
KIMS 180855Z AUTO 00000KT 4SM CLR 22/21 A3010 RMK AO1
KIMS 180835Z AUTO 00000KT 5SM CLR 22/21 A3010 RMK AO1
KIMS 180815Z AUTO 00000KT 7SM CLR 23/22 A3010 RMK AO1
KIMS 180755Z AUTO 00000KT 7SM CLR 22/21 A3010 RMK AO1
KIMS 180735Z AUTO 00000KT 7SM CLR 22/21 A3010 RMK AO1
KIMS 180715Z AUTO 00000KT 7SM CLR 23/21 A3010 RMK AO1
KIMS 180655Z AUTO 00000KT 7SM CLR 23/21 A3010 RMK AO1
KIMS 180635Z AUTO 00000KT 7SM CLR 23/22 A3010 RMK AO1
KIMS 180615Z AUTO 00000KT 7SM CLR 23/21 A3011 RMK AO1
KIMS 180555Z AUTO 00000KT 7SM CLR 23/22 A3011 RMK AO1
KIMS 180535Z AUTO 00000KT 10SM CLR 23/22 A3011 RMK AO1
KIMS 180515Z AUTO 00000KT 10SM CLR 23/21 A3012 RMK AO1
KIMS 180455Z AUTO 00000KT 10SM CLR 24/22 A3011 RMK AO1
KIMS 180435Z AUTO 00000KT 10SM CLR 24/22 A3011 RMK AO1
KIMS 180415Z AUTO 00000KT 10SM CLR 25/22 A3011 RMK AO1
KIMS 180355Z AUTO 00000KT 10SM CLR 25/22 A3011 RMK AO1
KIMS 180335Z AUTO 00000KT 10SM CLR 25/22 A3010 RMK AO1
KIMS 180315Z AUTO 00000KT 10SM CLR 25/22 A3010 RMK AO1
KIMS 180255Z AUTO 00000KT 10SM CLR 26/22 A3010 RMK AO1
KIMS 180235Z AUTO 00000KT 10SM CLR 26/22 A3009 RMK AO1
KIMS 180215Z AUTO 00000KT 10SM CLR 26/22 A3008 RMK AO1
KIMS 180155Z AUTO 00000KT 10SM CLR 27/23 A3008 RMK AO1
KIMS 180135Z AUTO 00000KT 10SM CLR 27/22 A3008 RMK AO1
KIMS 180115Z AUTO 00000KT 10SM SCT060 28/23 A3008 RMK AO1
KIMS 180055Z AUTO 00000KT 10SM CLR 29/22 A3008 RMK AO1
KIMS 180036Z AUTO 00000KT 10SM CLR 30/21 A3007 RMK AO1
KIMS 180015Z AUTO 00000KT 10SM CLR 31/21 A3007 RMK AO1
KIMS 172355Z AUTO 00000KT 10SM CLR 32/20 A3008 RMK AO1
KIMS 172335Z AUTO 00000KT 10SM CLR 33/18 A3008 RMK AO1
KIMS 172315Z AUTO 23003KT 10SM CLR 33/18 A3007 RMK AO1
KIMS 172255Z AUTO 24004KT 10SM CLR 33/17 A3008 RMK AO1
KIMS 172235Z AUTO 18005KT 10SM CLR 34/17 A3008 RMK AO1
KIMS 172215Z AUTO 22004KT 10SM CLR 34/17 A3008 RMK AO1
KIMS 172155Z AUTO 23004KT 10SM SCT055 34/17 A3009 RMK AO1
KIMS 172135Z AUTO 22005KT 10SM SCT055 35/16 A3009 RMK AO1
KIMS 172115Z AUTO 23006KT 10SM SCT055 SCT065 SCT075 35/16 A3009 RMK AO1